Terminal Aerodrome Forecast
Issued by NWS

Home | Current Version | Previous Version | Text Only | Print | Product List | Glossary On
Versions: 1 2 3 4 5 6 7 8 9 10 11 12 13 14 15 16 17 18
000
FTUS42 KFFC 231100
TAFPDK
TAF
KPDK 231122Z 2312/2412 30003KT P6SM FEW250
     FM231500 32005KT P6SM FEW040
     FM231800 33008KT P6SM VCSH SCT050
      TEMPO 2319/2323 5SM -TSRA BKN035CB
     FM240200 34007KT P6SM SCT070 SCT120
     FM240800 02006KT P6SM VCSH SCT040 SCT070=

USA.gov is the U.S. government's official web portal to all federal, state and local government web resources and services.